Time;durP1;ratioP1;P1;durP2;ratioP2;P2;SDS_P1;SDS_P2;PMS_P1;PMS_P2;Temp;Humidity;BMP_temperature;BMP_pressure;BME280_temperature;BME280_humidity;BME280_pressure;Samples;Min_cycle;Max_cycle;Signal;HPM_P1;HPM_P2
2022/08/15 00:00:41;;;;;;;;;;;18.30;99.90;;;;;;4146706;28;19921;-63
2022/08/15 00:02:47;;;;;;;;;;;18.20;99.90;;;;;;4148984;28;20440;-63
2022/08/15 00:04:50;;;;;;;;;;;18.20;99.90;;;;;;4149890;28;19925;-64
2022/08/15 00:06:52;;;;;;;;;;;18.10;99.90;;;;;;4149775;28;19929;-63
2022/08/15 00:08:57;;;;;;;;;;;18.10;99.90;;;;;;4149869;28;19925;-63
2022/08/15 00:11:00;;;;;;;;;;;18.20;99.90;;;;;;4149514;28;19980;-63
2022/08/15 00:13:21;;;;;;;;;;;18.20;99.90;;;;;;4149520;28;20278;-63
2022/08/15 00:15:23;;;;;;;;;;;18.20;99.90;;;;;;4164599;28;20105;-63
2022/08/15 00:17:25;;;;;;;;;;;18.30;99.90;;;;;;4159101;28;20444;-63
2022/08/15 00:19:47;;;;;;;;;;;18.30;99.90;;;;;;4149481;28;19921;-64
2022/08/15 00:21:51;;;;;;;;;;;18.30;99.90;;;;;;4149586;28;19925;-64
2022/08/15 00:23:55;;;;;;;;;;;18.30;99.90;;;;;;4149416;28;19973;-64
2022/08/15 00:26:00;;;;;;;;;;;18.10;99.90;;;;;;4149472;28;19926;-64
2022/08/15 00:28:22;;;;;;;;;;;18.00;99.90;;;;;;4152891;28;20340;-63
2022/08/15 00:30:24;;;;;;;;;;;17.90;99.90;;;;;;4165513;28;19921;-64
2022/08/15 00:32:26;;;;;;;;;;;17.80;99.90;;;;;;4165710;28;19925;-64
2022/08/15 00:34:48;;;;;;;;;;;17.90;99.90;;;;;;4149467;28;19925;-62
2022/08/15 00:36:50;;;;;;;;;;;17.80;99.90;;;;;;4160361;28;19929;-64
2022/08/15 00:38:55;;;;;;;;;;;17.80;99.90;;;;;;4165554;28;19921;-64
2022/08/15 00:43:24;;;;;;;;;;;17.70;99.90;;;;;;4149029;28;19948;-64
2022/08/15 00:45:32;;;;;;;;;;;17.50;99.90;;;;;;4148969;28;20020;-63
2022/08/15 00:47:35;;;;;;;;;;;17.40;99.90;;;;;;4149218;28;20015;-63
2022/08/15 00:49:40;;;;;;;;;;;17.30;99.90;;;;;;4148994;28;19972;-64
2022/08/15 00:52:31;;;;;;;;;;;17.20;99.90;;;;;;4154429;28;20020;-64
2022/08/15 00:54:43;;;;;;;;;;;17.30;99.90;;;;;;4083099;29;19930;-64
2022/08/15 00:57:01;;;;;;;;;;;17.40;99.90;;;;;;4082789;29;19934;-64
2022/08/15 00:59:04;;;;;;;;;;;17.70;99.90;;;;;;4089580;29;20088;-64
2022/08/15 01:01:07;;;;;;;;;;;17.90;99.90;;;;;;4098548;29;19926;-64
2022/08/15 01:03:11;;;;;;;;;;;17.90;99.90;;;;;;4098711;28;19922;-64
2022/08/15 01:05:16;;;;;;;;;;;18.00;99.90;;;;;;4098314;29;20030;-63
2022/08/15 01:07:19;;;;;;;;;;;18.00;99.90;;;;;;4098702;28;19922;-64
2022/08/15 01:09:21;;;;;;;;;;;17.90;99.90;;;;;;4098582;29;19992;-64
2022/08/15 01:11:31;;;;;;;;;;;17.90;99.90;;;;;;4082356;29;19955;-64
2022/08/15 01:13:34;;;;;;;;;;;17.80;99.90;;;;;;4097963;28;19981;-63
2022/08/15 01:15:56;;;;;;;;;;;17.70;99.90;;;;;;4098428;28;20017;-64
2022/08/15 01:17:59;;;;;;;;;;;17.80;99.90;;;;;;4098271;28;19978;-65
2022/08/15 01:20:11;;;;;;;;;;;17.70;99.90;;;;;;4098541;29;20017;-64
2022/08/15 01:22:23;;;;;;;;;;;17.60;99.90;;;;;;4098169;29;19955;-64
2022/08/15 01:24:48;;;;;;;;;;;17.60;99.90;;;;;;4098036;29;19933;-63
2022/08/15 01:27:10;;;;;;;;;;;17.60;99.90;;;;;;4098291;28;19922;-64
2022/08/15 01:29:14;;;;;;;;;;;17.40;99.90;;;;;;4082496;29;19929;-64
2022/08/15 01:31:18;;;;;;;;;;;17.20;99.90;;;;;;4124328;28;20392;-64
2022/08/15 01:33:21;;;;;;;;;;;17.20;99.90;;;;;;4150055;28;19936;-63
2022/08/15 01:35:23;;;;;;;;;;;17.10;99.90;;;;;;4164778;28;20441;-63
2022/08/15 01:37:25;;;;;;;;;;;17.00;99.90;;;;;;4163806;28;20384;-63
2022/08/15 01:39:30;;;;;;;;;;;17.00;99.90;;;;;;4164717;28;19921;-64
2022/08/15 01:41:56;;;;;;;;;;;16.90;99.90;;;;;;4164695;28;19921;-63
2022/08/15 01:44:06;;;;;;;;;;;17.00;99.90;;;;;;4154299;28;20016;-64
2022/08/15 01:46:29;;;;;;;;;;;16.90;99.90;;;;;;4147976;28;19925;-63
2022/08/15 01:48:40;;;;;;;;;;;16.90;99.90;;;;;;4148113;28;19948;-64
2022/08/15 01:50:44;;;;;;;;;;;17.00;99.90;;;;;;4137038;28;20433;-64
2022/08/15 01:52:53;;;;;;;;;;;17.10;99.90;;;;;;4131739;28;20423;-63
2022/08/15 01:55:00;;;;;;;;;;;17.10;99.90;;;;;;4131892;28;20293;-64
2022/08/15 01:57:06;;;;;;;;;;;17.10;99.90;;;;;;4131658;28;19932;-64
2022/08/15 01:59:12;;;;;;;;;;;17.00;99.90;;;;;;4131673;28;20408;-64
2022/08/15 02:01:15;;;;;;;;;;;17.00;99.90;;;;;;4132018;28;19925;-64
2022/08/15 02:03:17;;;;;;;;;;;16.90;99.90;;;;;;4131797;28;20299;-63
2022/08/15 02:05:21;;;;;;;;;;;16.80;99.90;;;;;;4131691;28;20016;-64
2022/08/15 02:07:25;;;;;;;;;;;16.70;99.90;;;;;;4131715;28;19969;-64
2022/08/15 02:09:28;;;;;;;;;;;16.60;99.90;;;;;;4131713;28;20001;-63
2022/08/15 02:11:39;;;;;;;;;;;16.60;99.90;;;;;;4131430;28;19929;-64
2022/08/15 02:14:02;;;;;;;;;;;16.70;99.90;;;;;;4131376;28;20432;-63
2022/08/15 02:16:04;;;;;;;;;;;16.90;99.90;;;;;;4143323;28;19925;-64
2022/08/15 02:18:06;;;;;;;;;;;16.60;99.90;;;;;;4145486;28;19922;-64
2022/08/15 02:20:09;;;;;;;;;;;16.60;99.90;;;;;;4131509;28;19922;-63
2022/08/15 02:22:25;;;;;;;;;;;16.40;99.90;;;;;;4147181;28;19972;-64
2022/08/15 02:24:28;;;;;;;;;;;16.30;99.90;;;;;;4147572;28;20352;-63
2022/08/15 02:26:30;;;;;;;;;;;16.20;99.90;;;;;;4147147;28;20329;-62
2022/08/15 02:28:33;;;;;;;;;;;16.10;99.90;;;;;;4138067;28;19996;-64
2022/08/15 02:30:37;;;;;;;;;;;16.20;99.90;;;;;;4131206;28;19976;-63
2022/08/15 02:32:39;;;;;;;;;;;16.30;99.90;;;;;;4131299;28;19930;-63
2022/08/15 02:34:43;;;;;;;;;;;16.40;99.90;;;;;;4131304;28;20302;-64
2022/08/15 02:36:50;;;;;;;;;;;16.40;99.90;;;;;;4142179;28;19944;-63
2022/08/15 02:38:53;;;;;;;;;;;16.30;99.90;;;;;;4147448;28;19922;-64
2022/08/15 02:40:56;;;;;;;;;;;16.40;99.90;;;;;;4141018;28;19928;-64
2022/08/15 02:43:03;;;;;;;;;;;16.50;99.90;;;;;;4131224;28;20341;-64
2022/08/15 02:45:09;;;;;;;;;;;16.60;99.90;;;;;;4131217;28;19925;-64
2022/08/15 02:47:14;;;;;;;;;;;16.50;99.90;;;;;;4131257;28;19976;-64
2022/08/15 02:49:18;;;;;;;;;;;16.60;99.90;;;;;;4131218;28;19929;-63
2022/08/15 02:51:21;;;;;;;;;;;16.70;99.90;;;;;;4130791;28;20301;-63
2022/08/15 02:53:23;;;;;;;;;;;16.70;99.90;;;;;;4131311;28;19929;-64
2022/08/15 02:55:25;;;;;;;;;;;16.60;99.90;;;;;;4131265;28;19925;-64
2022/08/15 02:57:32;;;;;;;;;;;16.50;99.90;;;;;;4130898;28;19926;-63
2022/08/15 02:59:54;;;;;;;;;;;16.50;99.90;;;;;;4131263;28;19922;-62
2022/08/15 03:01:57;;;;;;;;;;;16.40;99.90;;;;;;4131096;28;20461;-64
2022/08/15 03:03:59;;;;;;;;;;;16.30;99.90;;;;;;4131096;28;20025;-64
2022/08/15 03:06:01;;;;;;;;;;;16.20;99.90;;;;;;4131239;28;19937;-62
2022/08/15 03:08:04;;;;;;;;;;;16.10;99.90;;;;;;4130879;28;19928;-64
2022/08/15 03:10:06;;;;;;;;;;;16.00;99.90;;;;;;4131063;28;20378;-63
2022/08/15 03:12:08;;;;;;;;;;;16.00;99.90;;;;;;4130568;28;19921;-63
2022/08/15 03:14:26;;;;;;;;;;;16.00;99.90;;;;;;4131165;28;19933;-64
2022/08/15 03:16:35;;;;;;;;;;;16.10;99.90;;;;;;4131005;28;19926;-65
2022/08/15 03:18:37;;;;;;;;;;;16.20;99.90;;;;;;4130855;28;19930;-64
2022/08/15 03:20:40;;;;;;;;;;;16.20;99.90;;;;;;4130956;28;19922;-64
2022/08/15 03:22:42;;;;;;;;;;;16.20;99.90;;;;;;4130725;28;20369;-63
2022/08/15 03:24:47;;;;;;;;;;;16.20;99.90;;;;;;4130878;28;20012;-63
2022/08/15 03:26:50;;;;;;;;;;;16.20;99.90;;;;;;4131206;28;19932;-63
2022/08/15 03:28:52;;;;;;;;;;;16.10;99.90;;;;;;4130852;28;20422;-64
2022/08/15 03:31:04;;;;;;;;;;;16.20;99.90;;;;;;4130993;28;20028;-64
2022/08/15 03:33:06;;;;;;;;;;;16.30;99.90;;;;;;4130721;28;19926;-64
2022/08/15 03:35:09;;;;;;;;;;;16.10;99.90;;;;;;4130707;28;20356;-63
2022/08/15 03:37:10;;;;;;;;;;;16.10;99.90;;;;;;4145973;28;19968;-64
2022/08/15 03:39:13;;;;;;;;;;;16.10;99.90;;;;;;4136514;28;19922;-64
2022/08/15 03:41:16;;;;;;;;;;;16.20;99.90;;;;;;4133808;28;19928;-64
2022/08/15 03:43:26;;;;;;;;;;;16.10;99.90;;;;;;4134141;28;19932;-63
2022/08/15 03:45:28;;;;;;;;;;;16.10;99.90;;;;;;4134173;28;19922;-64
2022/08/15 03:47:36;;;;;;;;;;;16.10;99.90;;;;;;4133932;28;19922;-63
2022/08/15 03:49:38;;;;;;;;;;;16.00;99.90;;;;;;4133575;28;19929;-64
2022/08/15 03:52:04;;;;;;;;;;;16.00;99.90;;;;;;4134080;28;19928;-64
2022/08/15 03:54:06;;;;;;;;;;;15.80;99.90;;;;;;4133623;28;19956;-64
2022/08/15 03:56:27;;;;;;;;;;;15.50;99.90;;;;;;4133814;28;19921;-63
2022/08/15 03:58:29;;;;;;;;;;;15.30;99.90;;;;;;4133573;28;19933;-63
2022/08/15 04:00:36;;;;;;;;;;;15.10;99.90;;;;;;4148782;28;19972;-63
2022/08/15 04:02:38;;;;;;;;;;;15.30;99.90;;;;;;4132612;28;19921;-64
2022/08/15 04:04:40;;;;;;;;;;;15.50;99.90;;;;;;4136605;28;19928;-64
2022/08/15 04:06:42;;;;;;;;;;;15.40;99.90;;;;;;4133603;28;19922;-63
2022/08/15 04:08:46;;;;;;;;;;;15.20;99.90;;;;;;4133474;28;19921;-63
2022/08/15 04:11:06;;;;;;;;;;;15.20;99.90;;;;;;4133698;28;19925;-64
2022/08/15 04:13:10;;;;;;;;;;;15.30;99.90;;;;;;4115932;28;19969;-64
2022/08/15 04:15:13;;;;;;;;;;;15.10;99.90;;;;;;4133467;28;20369;-64
2022/08/15 04:17:15;;;;;;;;;;;15.30;99.90;;;;;;4137725;28;19931;-63
2022/08/15 04:19:20;;;;;;;;;;;15.30;99.90;;;;;;4149600;28;20016;-64
2022/08/15 04:21:22;;;;;;;;;;;15.30;99.90;;;;;;4149449;28;20301;-64
2022/08/15 04:23:23;;;;;;;;;;;15.20;99.90;;;;;;4139782;28;20329;-64
2022/08/15 04:25:28;;;;;;;;;;;15.20;99.90;;;;;;4133232;28;19976;-64
2022/08/15 04:27:39;;;;;;;;;;;15.40;99.90;;;;;;4133600;28;19925;-64
2022/08/15 04:29:42;;;;;;;;;;;15.50;99.90;;;;;;4133139;28;19921;-64
2022/08/15 04:31:44;;;;;;;;;;;15.60;99.90;;;;;;4133099;28;19933;-63
2022/08/15 04:33:46;;;;;;;;;;;15.50;99.90;;;;;;4133150;28;19925;-64
2022/08/15 04:36:08;;;;;;;;;;;15.50;99.90;;;;;;4137702;28;19984;-63
2022/08/15 04:38:09;;;;;;;;;;;15.30;99.90;;;;;;4149284;28;19929;-64
2022/08/15 04:40:15;;;;;;;;;;;15.30;99.90;;;;;;4149243;28;20364;-64
2022/08/15 04:42:47;;;;;;;;;;;15.20;99.90;;;;;;4144222;28;19929;-63
2022/08/15 04:44:51;;;;;;;;;;;15.20;99.90;;;;;;4132835;28;19936;-64
2022/08/15 04:46:53;;;;;;;;;;;15.00;99.90;;;;;;4132731;28;19932;-64
2022/08/15 04:48:56;;;;;;;;;;;14.90;99.90;;;;;;4131711;28;19933;-64
2022/08/15 04:50:59;;;;;;;;;;;14.90;99.90;;;;;;4132550;28;19973;-64
2022/08/15 04:53:02;;;;;;;;;;;14.90;99.90;;;;;;4135762;28;20400;-62
2022/08/15 04:55:04;;;;;;;;;;;14.80;99.90;;;;;;4147636;28;20042;-64
2022/08/15 04:57:08;;;;;;;;;;;14.70;99.90;;;;;;4148906;28;19932;-63
2022/08/15 04:59:10;;;;;;;;;;;14.70;99.90;;;;;;4133730;28;19932;-64
2022/08/15 05:01:32;;;;;;;;;;;14.80;99.90;;;;;;4148607;28;19931;-64
2022/08/15 05:03:43;;;;;;;;;;;14.90;99.90;;;;;;4148555;28;19921;-64
2022/08/15 05:05:47;;;;;;;;;;;14.80;99.90;;;;;;4132709;28;19957;-61
2022/08/15 05:07:49;;;;;;;;;;;14.80;99.90;;;;;;4141926;28;19926;-63
2022/08/15 05:09:59;;;;;;;;;;;14.80;99.90;;;;;;4134980;28;19960;-63
2022/08/15 05:12:04;;;;;;;;;;;14.90;99.90;;;;;;4146327;28;20377;-63
2022/08/15 05:14:10;;;;;;;;;;;15.10;99.90;;;;;;4147353;28;19977;-64
2022/08/15 05:16:34;;;;;;;;;;;15.20;99.90;;;;;;4114957;28;19926;-63
2022/08/15 05:18:38;;;;;;;;;;;15.20;99.90;;;;;;4132799;28;19928;-64
2022/08/15 05:20:41;;;;;;;;;;;15.20;99.90;;;;;;4123449;28;19945;-64
2022/08/15 05:22:52;;;;;;;;;;;15.30;99.90;;;;;;4148592;28;19931;-64
2022/08/15 05:24:56;;;;;;;;;;;15.20;99.90;;;;;;4132413;28;19926;-63
2022/08/15 05:26:59;;;;;;;;;;;15.30;99.90;;;;;;4131035;28;20372;-63
2022/08/15 05:29:06;;;;;;;;;;;15.40;99.90;;;;;;4132395;28;19980;-64
2022/08/15 05:31:09;;;;;;;;;;;15.50;99.90;;;;;;4132140;28;20333;-63
2022/08/15 05:33:17;;;;;;;;;;;15.50;99.90;;;;;;4132299;28;19976;-63
2022/08/15 05:35:19;;;;;;;;;;;15.50;99.90;;;;;;4114764;28;19929;-63
2022/08/15 05:37:21;;;;;;;;;;;15.50;99.90;;;;;;4132521;28;19937;-63
2022/08/15 05:39:25;;;;;;;;;;;15.50;99.90;;;;;;4131978;28;19925;-62
2022/08/15 05:41:59;;;;;;;;;;;15.60;99.90;;;;;;4142645;28;19928;-62
2022/08/15 05:44:20;;;;;;;;;;;15.90;99.90;;;;;;4143824;28;19921;-63
2022/08/15 05:46:41;;;;;;;;;;;15.80;99.90;;;;;;4143896;28;19980;-64
2022/08/15 05:48:46;;;;;;;;;;;15.90;99.90;;;;;;4131977;28;19946;-64
2022/08/15 05:50:57;;;;;;;;;;;16.00;99.90;;;;;;4131879;28;19970;-63
2022/08/15 05:53:29;;;;;;;;;;;16.00;99.90;;;;;;4131777;28;19929;-64
2022/08/15 05:55:34;;;;;;;;;;;16.30;99.90;;;;;;4119629;28;20423;-64
2022/08/15 05:57:44;;;;;;;;;;;16.50;99.90;;;;;;4148065;28;20016;-64
2022/08/15 05:59:48;;;;;;;;;;;16.40;99.90;;;;;;4132702;28;19933;-64
2022/08/15 06:01:53;;;;;;;;;;;16.30;99.90;;;;;;4131957;28;19929;-64
2022/08/15 06:04:36;;;;;;;;;;;16.30;99.90;;;;;;4137333;28;20349;-62
2022/08/15 06:06:40;;;;;;;;;;;16.30;99.90;;;;;;4131822;28;20266;-63
2022/08/15 06:08:49;;;;;;;;;;;16.40;99.90;;;;;;4141470;28;20475;-64
2022/08/15 06:11:14;;;;;;;;;;;16.60;99.90;;;;;;4147476;28;20405;-63
2022/08/15 06:13:24;;;;;;;;;;;16.80;99.90;;;;;;4147952;28;20385;-64
2022/08/15 06:15:46;;;;;;;;;;;16.90;99.90;;;;;;4134553;28;19929;-63
2022/08/15 06:17:52;;;;;;;;;;;16.90;99.90;;;;;;4131453;28;19925;-64
2022/08/15 06:19:58;;;;;;;;;;;17.10;99.90;;;;;;4131645;28;19925;-64
2022/08/15 06:22:21;;;;;;;;;;;17.10;99.90;;;;;;4131590;28;19922;-65
2022/08/15 06:24:30;;;;;;;;;;;17.10;99.90;;;;;;4131119;28;19922;-64
2022/08/15 06:26:32;;;;;;;;;;;17.20;99.90;;;;;;4131428;28;19929;-64
2022/08/15 06:28:48;;;;;;;;;;;17.40;99.90;;;;;;4126593;28;19949;-64
2022/08/15 06:30:58;;;;;;;;;;;17.40;99.90;;;;;;4131235;28;20314;-64
2022/08/15 06:33:23;;;;;;;;;;;17.40;99.90;;;;;;4131202;28;19933;-63
2022/08/15 06:35:35;;;;;;;;;;;17.60;99.90;;;;;;4122607;28;19922;-62
2022/08/15 06:37:53;;;;;;;;;;;17.70;99.90;;;;;;4146007;28;19921;-63
2022/08/15 06:40:13;;;;;;;;;;;17.90;99.90;;;;;;4146196;28;19921;-63
2022/08/15 06:42:34;;;;;;;;;;;18.00;99.90;;;;;;4164136;28;19965;-64
2022/08/15 06:44:37;;;;;;;;;;;18.40;99.90;;;;;;4131444;28;19922;-63
2022/08/15 06:46:40;;;;;;;;;;;18.60;99.90;;;;;;4131146;28;19922;-64
2022/08/15 06:48:50;;;;;;;;;;;18.70;99.90;;;;;;4152618;28;20019;-63
2022/08/15 06:51:02;;;;;;;;;;;18.90;99.90;;;;;;4156108;28;19964;-64
2022/08/15 06:53:05;;;;;;;;;;;19.00;99.90;;;;;;4155646;28;19925;-64
2022/08/15 06:55:10;;;;;;;;;;;19.10;99.90;;;;;;4157519;28;19960;-64
2022/08/15 06:57:33;;;;;;;;;;;19.30;99.90;;;;;;4147769;28;19931;-64
2022/08/15 06:59:43;;;;;;;;;;;19.60;99.90;;;;;;4147125;28;19929;-64
2022/08/15 07:02:03;;;;;;;;;;;19.50;99.90;;;;;;4147251;28;20365;-64
2022/08/15 07:04:20;;;;;;;;;;;19.60;99.90;;;;;;4147471;28;19925;-64
2022/08/15 07:06:27;;;;;;;;;;;19.80;99.90;;;;;;4148247;28;19930;-64
2022/08/15 07:08:40;;;;;;;;;;;20.40;99.90;;;;;;4161256;28;19922;-64
2022/08/15 07:10:45;;;;;;;;;;;20.50;99.90;;;;;;4163688;28;19921;-64
2022/08/15 07:12:56;;;;;;;;;;;20.50;99.90;;;;;;4155264;28;19928;-64
2022/08/15 07:15:03;;;;;;;;;;;20.60;99.90;;;;;;4152497;28;19929;-64
2022/08/15 07:17:31;;;;;;;;;;;20.80;99.90;;;;;;4153032;28;19926;-64
2022/08/15 07:19:35;;;;;;;;;;;21.20;99.90;;;;;;4129792;28;19926;-64
2022/08/15 07:21:37;;;;;;;;;;;21.20;99.90;;;;;;4160584;28;19971;-64
2022/08/15 07:24:06;;;;;;;;;;;21.20;99.90;;;;;;4152559;28;20293;-64
2022/08/15 07:26:28;;;;;;;;;;;21.30;99.90;;;;;;4145908;28;19921;-64
2022/08/15 07:28:30;;;;;;;;;;;21.40;99.90;;;;;;4152305;28;19929;-63
2022/08/15 07:30:44;;;;;;;;;;;21.70;99.90;;;;;;4152378;28;20281;-64
2022/08/15 07:32:51;;;;;;;;;;;21.80;99.90;;;;;;4152527;28;19921;-64
2022/08/15 07:35:04;;;;;;;;;;;22.00;99.90;;;;;;4152454;28;20360;-64
2022/08/15 07:37:15;;;;;;;;;;;21.90;99.90;;;;;;4159451;28;19924;-64
2022/08/15 07:39:23;;;;;;;;;;;21.90;99.90;;;;;;4168844;28;20039;-64
2022/08/15 07:41:39;;;;;;;;;;;21.90;99.90;;;;;;4163373;28;19948;-63
2022/08/15 07:43:41;;;;;;;;;;;22.10;99.90;;;;;;4168344;28;19975;-64
2022/08/15 07:45:46;;;;;;;;;;;22.10;99.90;;;;;;4168857;28;20427;-64
2022/08/15 07:48:17;;;;;;;;;;;22.20;99.90;;;;;;4167489;28;19938;-64
2022/08/15 07:50:37;;;;;;;;;;;22.50;99.90;;;;;;4137209;28;20404;-63
2022/08/15 07:52:39;;;;;;;;;;;22.90;99.90;;;;;;4160705;28;19921;-64
2022/08/15 07:54:46;;;;;;;;;;;23.00;99.90;;;;;;4165713;28;19924;-64
2022/08/15 07:56:54;;;;;;;;;;;23.10;99.90;;;;;;4171230;28;19925;-64
2022/08/15 07:59:12;;;;;;;;;;;23.20;99.90;;;;;;4168984;28;19935;-63
2022/08/15 08:01:19;;;;;;;;;;;23.20;99.90;;;;;;4146811;28;20225;-64
2022/08/15 08:03:35;;;;;;;;;;;23.10;99.90;;;;;;4163525;28;19931;-64
2022/08/15 08:05:48;;;;;;;;;;;23.20;99.90;;;;;;4165602;28;19936;-64
2022/08/15 08:07:50;;;;;;;;;;;23.10;99.90;;;;;;4165877;28;19928;-65
2022/08/15 08:09:57;;;;;;;;;;;23.10;99.90;;;;;;4161447;28;19978;-64
2022/08/15 08:12:07;;;;;;;;;;;23.10;99.90;;;;;;4164837;28;19920;-64
2022/08/15 08:14:35;;;;;;;;;;;23.20;99.90;;;;;;4166175;28;20481;-64
2022/08/15 08:16:44;;;;;;;;;;;23.40;99.90;;;;;;4163680;28;21734;-65
2022/08/15 08:18:48;;;;;;;;;;;23.50;99.90;;;;;;4162438;28;20385;-64
2022/08/15 08:20:52;;;;;;;;;;;23.60;99.90;;;;;;4165362;28;19925;-64
2022/08/15 08:22:57;;;;;;;;;;;23.60;99.90;;;;;;4160865;28;20419;-64
2022/08/15 08:25:14;;;;;;;;;;;23.80;99.90;;;;;;4165739;28;20300;-64
2022/08/15 08:27:35;;;;;;;;;;;24.00;99.90;;;;;;4161841;28;19924;-64
2022/08/15 08:29:45;;;;;;;;;;;24.10;99.90;;;;;;4154720;28;19960;-64
2022/08/15 08:32:02;;;;;;;;;;;24.30;99.90;;;;;;4149212;28;19921;-64
2022/08/15 08:34:34;;;;;;;;;;;24.20;99.80;;;;;;4149511;28;19925;-65
2022/08/15 08:36:58;;;;;;;;;;;24.00;99.90;;;;;;4145142;28;19921;-64
2022/08/15 08:39:00;;;;;;;;;;;24.30;99.90;;;;;;4166013;28;20281;-64
2022/08/15 08:41:25;;;;;;;;;;;24.40;99.90;;;;;;4161000;28;19932;-64
2022/08/15 08:43:56;;;;;;;;;;;24.30;99.90;;;;;;4149449;28;19921;-65
2022/08/15 08:46:04;;;;;;;;;;;24.60;99.30;;;;;;4136504;28;19926;-64
2022/08/15 08:48:25;;;;;;;;;;;25.00;99.20;;;;;;4149305;28;19921;-64
2022/08/15 08:50:30;;;;;;;;;;;25.00;99.90;;;;;;4149310;28;19921;-65
2022/08/15 08:52:40;;;;;;;;;;;25.00;99.90;;;;;;4160868;28;19925;-64
2022/08/15 08:54:57;;;;;;;;;;;25.10;99.90;;;;;;4158643;28;20401;-65
2022/08/15 08:57:05;;;;;;;;;;;25.20;99.90;;;;;;4153730;28;20009;-63
2022/08/15 08:59:16;;;;;;;;;;;25.20;99.90;;;;;;4165309;28;20360;-65
2022/08/15 09:01:23;;;;;;;;;;;25.50;99.90;;;;;;4143969;28;19932;-64
2022/08/15 09:03:34;;;;;;;;;;;25.30;99.90;;;;;;4155110;28;19926;-64
2022/08/15 09:05:48;;;;;;;;;;;25.30;99.90;;;;;;4165333;28;19924;-64
2022/08/15 09:07:53;;;;;;;;;;;25.10;99.90;;;;;;4160338;28;19925;-64
2022/08/15 09:09:57;;;;;;;;;;;25.40;99.90;;;;;;4161401;28;19969;-64
2022/08/15 09:14:37;;;;;;;;;;;25.70;99.90;;;;;;4146277;28;20328;-64
2022/08/15 09:17:01;;;;;;;;;;;25.60;99.90;;;;;;4161946;28;20019;-64
2022/08/15 09:19:26;;;;;;;;;;;25.90;99.90;;;;;;4159959;28;19929;-64
2022/08/15 09:21:31;;;;;;;;;;;25.70;99.90;;;;;;4160431;28;20396;-64
2022/08/15 09:23:40;;;;;;;;;;;25.70;99.90;;;;;;4162224;28;20007;-63
2022/08/15 09:25:49;;;;;;;;;;;25.60;99.90;;;;;;4177020;28;19927;-64
2022/08/15 09:27:54;;;;;;;;;;;25.30;99.90;;;;;;4165067;28;20016;-63
2022/08/15 09:30:03;;;;;;;;;;;25.60;99.90;;;;;;4151747;28;19968;-63
2022/08/15 09:32:28;;;;;;;;;;;25.50;99.90;;;;;;4148627;28;19925;-64
2022/08/15 09:34:53;;;;;;;;;;;25.80;99.90;;;;;;4148096;28;20019;-64
2022/08/15 09:37:00;;;;;;;;;;;26.10;99.90;;;;;;4157414;28;20023;-63
2022/08/15 09:39:01;;;;;;;;;;;25.50;99.90;;;;;;4159593;28;19921;-64
2022/08/15 09:41:20;;;;;;;;;;;25.60;99.90;;;;;;4162548;28;19925;-64
2022/08/15 09:43:31;;;;;;;;;;;25.60;99.90;;;;;;4155475;28;20380;-64
2022/08/15 09:45:45;;;;;;;;;;;25.50;99.90;;;;;;4154410;28;19922;-64
2022/08/15 09:48:05;;;;;;;;;;;25.70;99.90;;;;;;4153423;28;19932;-64
2022/08/15 09:50:26;;;;;;;;;;;25.70;99.90;;;;;;4146845;28;20008;-64
2022/08/15 09:52:56;;;;;;;;;;;25.40;99.90;;;;;;4163956;28;19975;-63
2022/08/15 09:55:02;;;;;;;;;;;25.40;99.90;;;;;;4158549;28;19921;-64
2022/08/15 09:57:22;;;;;;;;;;;25.20;99.90;;;;;;4164368;28;19944;-64
2022/08/15 09:59:25;;;;;;;;;;;25.40;99.90;;;;;;4161806;28;19921;-64
2022/08/15 10:01:31;;;;;;;;;;;25.70;99.90;;;;;;4163651;28;20384;-63
2022/08/15 10:03:45;;;;;;;;;;;25.90;99.90;;;;;;4162743;28;19928;-64
2022/08/15 10:06:00;;;;;;;;;;;25.90;99.90;;;;;;4152079;28;20168;-64
2022/08/15 10:08:05;;;;;;;;;;;26.10;99.90;;;;;;4163892;28;19921;-64
2022/08/15 10:10:37;;;;;;;;;;;25.90;99.90;;;;;;4160892;28;19975;-64
2022/08/15 10:13:00;;;;;;;;;;;25.60;99.90;;;;;;4141263;28;19921;-64
2022/08/15 10:15:25;;;;;;;;;;;26.00;99.90;;;;;;4164432;28;19921;-64
2022/08/15 10:17:34;;;;;;;;;;;25.90;99.90;;;;;;4167778;28;19956;-64
2022/08/15 10:19:38;;;;;;;;;;;26.40;99.90;;;;;;4144274;28;19992;-63
2022/08/15 10:22:24;;;;;;;;;;;26.80;99.90;;;;;;4165818;28;19927;-64
2022/08/15 10:24:45;;;;;;;;;;;27.40;99.90;;;;;;4127761;28;19921;-64
2022/08/15 10:27:08;;;;;;;;;;;27.00;99.90;;;;;;4153248;28;19926;-64
2022/08/15 10:29:27;;;;;;;;;;;27.00;99.90;;;;;;4148779;28;20028;-64
2022/08/15 10:31:37;;;;;;;;;;;27.00;99.90;;;;;;4147921;28;19921;-64
2022/08/15 10:33:57;;;;;;;;;;;27.10;99.90;;;;;;4148630;28;19921;-64
2022/08/15 10:36:15;;;;;;;;;;;27.60;99.90;;;;;;4157169;28;19983;-64
2022/08/15 10:38:25;;;;;;;;;;;27.70;99.90;;;;;;4147640;28;19925;-64
2022/08/15 10:41:07;;;;;;;;;;;27.60;99.90;;;;;;4146354;28;21363;-64
2022/08/15 10:43:18;;;;;;;;;;;27.70;99.90;;;;;;4096941;29;19923;-64
2022/08/15 10:45:19;;;;;;;;;;;27.70;99.90;;;;;;4134293;28;19921;-64
2022/08/15 10:47:34;;;;;;;;;;;27.40;99.90;;;;;;4138913;28;20373;-64
2022/08/15 10:49:54;;;;;;;;;;;27.60;99.90;;;;;;4158712;28;19929;-63
2022/08/15 10:52:27;;;;;;;;;;;28.00;99.90;;;;;;4149151;28;19964;-64
2022/08/15 10:54:38;;;;;;;;;;;28.60;99.90;;;;;;4124812;28;20032;-64
2022/08/15 10:56:40;;;;;;;;;;;28.40;99.90;;;;;;4148541;28;20365;-64
2022/08/15 10:59:05;;;;;;;;;;;27.90;99.90;;;;;;4148830;28;19925;-64
2022/08/15 11:01:13;;;;;;;;;;;27.60;99.90;;;;;;4147163;28;19925;-64
2022/08/15 11:03:36;;;;;;;;;;;27.70;99.90;;;;;;4147649;28;19958;-64
2022/08/15 11:06:02;;;;;;;;;;;27.90;99.90;;;;;;4138662;28;19926;-64
2022/08/15 11:08:11;;;;;;;;;;;27.80;99.90;;;;;;4147208;28;19925;-64
2022/08/15 11:10:14;;;;;;;;;;;28.20;99.90;;;;;;4147454;28;19961;-65
2022/08/15 11:12:23;;;;;;;;;;;28.30;99.90;;;;;;4162407;28;19964;-64
2022/08/15 11:14:29;;;;;;;;;;;28.30;99.90;;;;;;4160747;28;19987;-64
2022/08/15 11:16:35;;;;;;;;;;;28.30;99.90;;;;;;4147062;28;19928;-64
2022/08/15 11:18:42;;;;;;;;;;;28.00;99.90;;;;;;4148157;28;19925;-64
2022/08/15 11:21:18;;;;;;;;;;;27.60;99.90;;;;;;4147295;28;19921;-64
2022/08/15 11:23:36;;;;;;;;;;;27.60;99.90;;;;;;4147173;28;19921;-64
2022/08/15 11:25:39;;;;;;;;;;;28.10;99.90;;;;;;4147079;28;20305;-64
2022/08/15 11:27:41;;;;;;;;;;;28.40;99.90;;;;;;4147108;28;20355;-64
2022/08/15 11:29:44;;;;;;;;;;;28.40;99.90;;;;;;4148022;28;19944;-64
2022/08/15 11:31:56;;;;;;;;;;;28.10;99.90;;;;;;4165877;28;19999;-64
2022/08/15 11:34:01;;;;;;;;;;;27.60;99.90;;;;;;4141539;28;19921;-64
2022/08/15 11:36:25;;;;;;;;;;;27.80;99.90;;;;;;4154017;28;19931;-64
2022/08/15 11:38:31;;;;;;;;;;;27.90;99.90;;;;;;4147148;28;19922;-64
2022/08/15 11:40:37;;;;;;;;;;;28.60;99.90;;;;;;4147128;28;19921;-64
2022/08/15 11:42:40;;;;;;;;;;;28.80;99.90;;;;;;4153001;28;19990;-64
2022/08/15 11:45:09;;;;;;;;;;;29.00;99.90;;;;;;4147079;28;19925;-64
2022/08/15 11:47:13;;;;;;;;;;;29.20;99.90;;;;;;4146896;28;20385;-64
2022/08/15 11:49:27;;;;;;;;;;;29.50;99.90;;;;;;4146985;28;20012;-63
2022/08/15 11:51:35;;;;;;;;;;;29.10;99.10;;;;;;4154583;28;19925;-63
2022/08/15 11:53:56;;;;;;;;;;;28.90;99.90;;;;;;4158095;28;19928;-64
2022/08/15 11:55:58;;;;;;;;;;;29.20;98.30;;;;;;4148371;28;19932;-64
2022/08/15 11:58:02;;;;;;;;;;;29.10;99.00;;;;;;4148240;28;19922;-65
2022/08/15 12:00:08;;;;;;;;;;;29.30;99.30;;;;;;4150219;28;19929;-63
2022/08/15 12:02:10;;;;;;;;;;;29.30;98.90;;;;;;4151007;28;20286;-64
2022/08/15 12:04:12;;;;;;;;;;;28.90;99.00;;;;;;4151679;28;19937;-63
2022/08/15 12:06:39;;;;;;;;;;;28.60;99.90;;;;;;4149739;28;19925;-63
2022/08/15 12:08:52;;;;;;;;;;;28.50;99.90;;;;;;4149577;28;19921;-63
2022/08/15 12:11:01;;;;;;;;;;;28.10;99.90;;;;;;4149973;28;19931;-64
2022/08/15 12:13:03;;;;;;;;;;;28.00;99.90;;;;;;4152157;28;20213;-63
2022/08/15 12:15:14;;;;;;;;;;;28.20;99.90;;;;;;4152537;28;19921;-64
2022/08/15 12:17:28;;;;;;;;;;;28.20;99.90;;;;;;4151136;28;19933;-64
2022/08/15 12:19:55;;;;;;;;;;;28.50;99.90;;;;;;4149860;28;19925;-63
2022/08/15 12:22:46;;;;;;;;;;;28.80;99.80;;;;;;4151122;28;20437;-64
2022/08/15 12:24:55;;;;;;;;;;;29.10;99.90;;;;;;4098958;29;20378;-65
2022/08/15 12:27:01;;;;;;;;;;;29.30;99.60;;;;;;4098338;29;19953;-64
2022/08/15 12:29:03;;;;;;;;;;;28.90;99.50;;;;;;4083642;29;19934;-64
2022/08/15 12:31:21;;;;;;;;;;;28.90;99.80;;;;;;4098637;29;19926;-63
2022/08/15 12:33:24;;;;;;;;;;;29.00;99.00;;;;;;4099130;29;19926;-64
2022/08/15 12:35:28;;;;;;;;;;;29.20;99.60;;;;;;4097431;29;20000;-64
2022/08/15 12:37:44;;;;;;;;;;;28.70;99.10;;;;;;4098941;29;19970;-64
2022/08/15 12:39:48;;;;;;;;;;;28.40;99.50;;;;;;4098444;29;19922;-63
2022/08/15 12:41:52;;;;;;;;;;;28.10;99.90;;;;;;4089400;29;19923;-64